sensor_id;sensor_type;location;lat;lon;timestamp;temperature;humidity
3980;DHT22;2004;52.452;13.120;2022-07-18T00:05:53;15.80;99.90
3980;DHT22;2004;52.452;13.120;2022-07-18T00:13:43;15.80;99.90
3980;DHT22;2004;52.452;13.120;2022-07-18T00:21:34;15.80;99.90
3980;DHT22;2004;52.452;13.120;2022-07-18T00:29:25;15.80;99.90
3980;DHT22;2004;52.452;13.120;2022-07-18T00:37:16;15.80;99.90
3980;DHT22;2004;52.452;13.120;2022-07-18T00:45:07;15.80;99.90
3980;DHT22;2004;52.452;13.120;2022-07-18T00:52:58;15.80;99.90
3980;DHT22;2004;52.452;13.120;2022-07-18T01:00:49;15.70;99.90
3980;DHT22;2004;52.452;13.120;2022-07-18T01:08:58;15.70;99.90
3980;DHT22;2004;52.452;13.120;2022-07-18T01:16:49;15.70;99.90
3980;DHT22;2004;52.452;13.120;2022-07-18T01:24:40;15.60;99.90
3980;DHT22;2004;52.452;13.120;2022-07-18T01:32:31;15.60;99.90
3980;DHT22;2004;52.452;13.120;2022-07-18T01:40:22;15.50;99.90
3980;DHT22;2004;52.452;13.120;2022-07-18T01:48:13;15.40;99.90
3980;DHT22;2004;52.452;13.120;2022-07-18T01:56:04;15.40;99.90
3980;DHT22;2004;52.452;13.120;2022-07-18T02:03:55;15.30;99.90
3980;DHT22;2004;52.452;13.120;2022-07-18T02:11:46;15.20;99.90
3980;DHT22;2004;52.452;13.120;2022-07-18T02:19:36;15.10;99.90
3980;DHT22;2004;52.452;13.120;2022-07-18T02:27:27;14.90;99.90
3980;DHT22;2004;52.452;13.120;2022-07-18T02:35:18;14.80;99.90
3980;DHT22;2004;52.452;13.120;2022-07-18T02:43:08;14.70;99.90
3980;DHT22;2004;52.452;13.120;2022-07-18T02:50:59;14.60;99.90
3980;DHT22;2004;52.452;13.120;2022-07-18T02:58:50;14.50;99.90
3980;DHT22;2004;52.452;13.120;2022-07-18T03:06:40;14.40;99.90
3980;DHT22;2004;52.452;13.120;2022-07-18T03:14:31;14.30;99.90
3980;DHT22;2004;52.452;13.120;2022-07-18T03:22:23;14.20;99.90
3980;DHT22;2004;52.452;13.120;2022-07-18T03:30:13;14.10;99.90
3980;DHT22;2004;52.452;13.120;2022-07-18T03:38:04;14.10;99.90
3980;DHT22;2004;52.452;13.120;2022-07-18T03:45:55;14.00;99.90
3980;DHT22;2004;52.452;13.120;2022-07-18T03:53:46;13.90;99.90
3980;DHT22;2004;52.452;13.120;2022-07-18T04:01:37;13.90;99.90
3980;DHT22;2004;52.452;13.120;2022-07-18T04:09:27;13.90;99.90
3980;DHT22;2004;52.452;13.120;2022-07-18T04:17:18;13.90;99.90
3980;DHT22;2004;52.452;13.120;2022-07-18T04:25:08;14.00;99.90
3980;DHT22;2004;52.452;13.120;2022-07-18T04:33:02;14.10;99.90
3980;DHT22;2004;52.452;13.120;2022-07-18T04:40:53;14.20;99.90
3980;DHT22;2004;52.452;13.120;2022-07-18T04:48:43;14.30;99.90
3980;DHT22;2004;52.452;13.120;2022-07-18T04:56:34;14.40;99.90
3980;DHT22;2004;52.452;13.120;2022-07-18T05:04:25;14.50;99.90
3980;DHT22;2004;52.452;13.120;2022-07-18T05:12:15;14.70;99.90
3980;DHT22;2004;52.452;13.120;2022-07-18T05:20:08;14.90;99.90
3980;DHT22;2004;52.452;13.120;2022-07-18T05:27:59;15.10;99.90
3980;DHT22;2004;52.452;13.120;2022-07-18T05:35:50;15.30;99.90
3980;DHT22;2004;52.452;13.120;2022-07-18T05:43:41;15.50;99.90
3980;DHT22;2004;52.452;13.120;2022-07-18T05:51:31;15.80;99.90
3980;DHT22;2004;52.452;13.120;2022-07-18T05:59:22;16.10;99.90
3980;DHT22;2004;52.452;13.120;2022-07-18T06:07:12;16.40;99.90
3980;DHT22;2004;52.452;13.120;2022-07-18T06:15:03;16.70;99.90
3980;DHT22;2004;52.452;13.120;2022-07-18T06:22:54;17.00;99.90
3980;DHT22;2004;52.452;13.120;2022-07-18T06:30:45;17.20;99.90
3980;DHT22;2004;52.452;13.120;2022-07-18T06:38:35;17.50;99.90
3980;DHT22;2004;52.452;13.120;2022-07-18T06:46:26;17.80;99.90
3980;DHT22;2004;52.452;13.120;2022-07-18T06:54:17;18.10;99.90
3980;DHT22;2004;52.452;13.120;2022-07-18T07:02:07;18.30;99.90
3980;DHT22;2004;52.452;13.120;2022-07-18T07:09:58;18.50;99.90
3980;DHT22;2004;52.452;13.120;2022-07-18T07:17:50;18.70;97.40
3980;DHT22;2004;52.452;13.120;2022-07-18T07:25:41;18.80;94.70
3980;DHT22;2004;52.452;13.120;2022-07-18T07:33:32;19.10;91.30
3980;DHT22;2004;52.452;13.120;2022-07-18T07:41:22;19.30;88.20
3980;DHT22;2004;52.452;13.120;2022-07-18T07:49:13;19.50;83.10
3980;DHT22;2004;52.452;13.120;2022-07-18T07:57:04;19.80;82.70
3980;DHT22;2004;52.452;13.120;2022-07-18T08:04:54;20.10;80.50
3980;DHT22;2004;52.452;13.120;2022-07-18T08:12:45;20.30;79.10
3980;DHT22;2004;52.452;13.120;2022-07-18T08:20:36;20.50;76.60
3980;DHT22;2004;52.452;13.120;2022-07-18T08:28:26;20.80;73.00
3980;DHT22;2004;52.452;13.120;2022-07-18T08:36:17;21.10;72.10
3980;DHT22;2004;52.452;13.120;2022-07-18T08:44:08;21.20;70.00
3980;DHT22;2004;52.452;13.120;2022-07-18T08:51:59;21.30;69.10
3980;DHT22;2004;52.452;13.120;2022-07-18T08:59:50;21.40;68.00
3980;DHT22;2004;52.452;13.120;2022-07-18T09:07:40;21.70;68.30
3980;DHT22;2004;52.452;13.120;2022-07-18T09:15:31;21.90;68.90
3980;DHT22;2004;52.452;13.120;2022-07-18T09:23:28;22.00;62.60
3980;DHT22;2004;52.452;13.120;2022-07-18T09:31:19;22.40;58.30
3980;DHT22;2004;52.452;13.120;2022-07-18T09:39:20;22.60;56.20
3980;DHT22;2004;52.452;13.120;2022-07-18T09:47:10;22.60;59.20
3980;DHT22;2004;52.452;13.120;2022-07-18T09:55:04;22.80;60.20
3980;DHT22;2004;52.452;13.120;2022-07-18T10:02:58;22.90;62.80
3980;DHT22;2004;52.452;13.120;2022-07-18T10:10:50;22.90;62.50
3980;DHT22;2004;52.452;13.120;2022-07-18T10:18:41;22.90;59.50
3980;DHT22;2004;52.452;13.120;2022-07-18T10:26:32;23.10;59.30
3980;DHT22;2004;52.452;13.120;2022-07-18T10:34:28;23.10;61.10
3980;DHT22;2004;52.452;13.120;2022-07-18T10:42:21;23.20;61.60
3980;DHT22;2004;52.452;13.120;2022-07-18T10:50:14;23.40;59.90
3980;DHT22;2004;52.452;13.120;2022-07-18T11:06:01;23.80;58.20
3980;DHT22;2004;52.452;13.120;2022-07-18T11:13:52;24.00;57.80
3980;DHT22;2004;52.452;13.120;2022-07-18T11:21:44;24.30;58.90
3980;DHT22;2004;52.452;13.120;2022-07-18T11:29:40;24.50;57.30
3980;DHT22;2004;52.452;13.120;2022-07-18T11:37:31;24.60;56.40
3980;DHT22;2004;52.452;13.120;2022-07-18T11:45:22;24.90;56.60
3980;DHT22;2004;52.452;13.120;2022-07-18T11:53:14;25.00;56.20
3980;DHT22;2004;52.452;13.120;2022-07-18T12:01:05;24.90;55.70
3980;DHT22;2004;52.452;13.120;2022-07-18T12:08:57;25.10;55.80
3980;DHT22;2004;52.452;13.120;2022-07-18T12:16:57;25.30;56.30
3980;DHT22;2004;52.452;13.120;2022-07-18T12:24:51;25.40;56.10
3980;DHT22;2004;52.452;13.120;2022-07-18T12:41:02;25.90;53.80
3980;DHT22;2004;52.452;13.120;2022-07-18T12:48:53;26.00;52.60
3980;DHT22;2004;52.452;13.120;2022-07-18T12:56:44;26.00;51.90
3980;DHT22;2004;52.452;13.120;2022-07-18T13:04:34;25.90;51.60
3980;DHT22;2004;52.452;13.120;2022-07-18T13:12:25;25.80;50.60
3980;DHT22;2004;52.452;13.120;2022-07-18T13:20:16;25.70;53.70
3980;DHT22;2004;52.452;13.120;2022-07-18T13:28:07;25.80;53.00
3980;DHT22;2004;52.452;13.120;2022-07-18T13:35:57;25.80;51.70
3980;DHT22;2004;52.452;13.120;2022-07-18T13:43:48;25.80;53.80
3980;DHT22;2004;52.452;13.120;2022-07-18T13:51:38;25.80;53.60
3980;DHT22;2004;52.452;13.120;2022-07-18T13:59:29;25.90;53.90
3980;DHT22;2004;52.452;13.120;2022-07-18T14:07:20;26.00;51.90
3980;DHT22;2004;52.452;13.120;2022-07-18T14:15:11;26.20;52.80
3980;DHT22;2004;52.452;13.120;2022-07-18T14:23:02;26.50;50.50
3980;DHT22;2004;52.452;13.120;2022-07-18T14:30:52;26.40;52.10
3980;DHT22;2004;52.452;13.120;2022-07-18T14:38:43;26.20;52.40
3980;DHT22;2004;52.452;13.120;2022-07-18T14:46:33;26.20;50.80
3980;DHT22;2004;52.452;13.120;2022-07-18T14:54:24;26.20;50.60
3980;DHT22;2004;52.452;13.120;2022-07-18T15:02:14;26.20;50.10
3980;DHT22;2004;52.452;13.120;2022-07-18T15:10:06;26.20;50.70
3980;DHT22;2004;52.452;13.120;2022-07-18T15:17:56;26.20;50.80
3980;DHT22;2004;52.452;13.120;2022-07-18T15:25:47;26.10;51.00
3980;DHT22;2004;52.452;13.120;2022-07-18T15:33:37;26.10;51.80
3980;DHT22;2004;52.452;13.120;2022-07-18T15:41:28;26.10;52.40
3980;DHT22;2004;52.452;13.120;2022-07-18T15:49:18;26.10;52.00
3980;DHT22;2004;52.452;13.120;2022-07-18T15:57:09;26.20;52.40
3980;DHT22;2004;52.452;13.120;2022-07-18T16:04:59;26.20;50.30
3980;DHT22;2004;52.452;13.120;2022-07-18T16:12:50;26.20;51.70
3980;DHT22;2004;52.452;13.120;2022-07-18T16:20:41;26.10;51.40
3980;DHT22;2004;52.452;13.120;2022-07-18T16:28:31;26.10;53.00
3980;DHT22;2004;52.452;13.120;2022-07-18T16:36:22;26.00;52.20
3980;DHT22;2004;52.452;13.120;2022-07-18T16:44:12;26.00;53.20
3980;DHT22;2004;52.452;13.120;2022-07-18T16:52:04;26.00;52.60
3980;DHT22;2004;52.452;13.120;2022-07-18T16:59:55;26.00;53.00
3980;DHT22;2004;52.452;13.120;2022-07-18T17:07:46;26.00;53.20
3980;DHT22;2004;52.452;13.120;2022-07-18T17:15:37;26.00;53.80
3980;DHT22;2004;52.452;13.120;2022-07-18T17:23:28;26.00;53.50
3980;DHT22;2004;52.452;13.120;2022-07-18T17:31:20;26.00;53.40
3980;DHT22;2004;52.452;13.120;2022-07-18T17:39:11;26.00;53.30
3980;DHT22;2004;52.452;13.120;2022-07-18T17:47:01;25.90;53.00
3980;DHT22;2004;52.452;13.120;2022-07-18T17:54:52;25.80;54.30
3980;DHT22;2004;52.452;13.120;2022-07-18T18:02:43;25.80;54.10
3980;DHT22;2004;52.452;13.120;2022-07-18T18:10:33;25.80;54.00
3980;DHT22;2004;52.452;13.120;2022-07-18T18:18:24;25.70;54.30
3980;DHT22;2004;52.452;13.120;2022-07-18T18:26:15;25.50;55.60
3980;DHT22;2004;52.452;13.120;2022-07-18T18:34:05;25.40;57.00
3980;DHT22;2004;52.452;13.120;2022-07-18T18:41:57;25.20;58.30
3980;DHT22;2004;52.452;13.120;2022-07-18T18:49:48;24.90;58.80
3980;DHT22;2004;52.452;13.120;2022-07-18T18:57:40;24.70;58.90
3980;DHT22;2004;52.452;13.120;2022-07-18T19:05:31;24.50;59.90
3980;DHT22;2004;52.452;13.120;2022-07-18T19:13:22;24.30;61.90
3980;DHT22;2004;52.452;13.120;2022-07-18T19:21:14;24.10;63.80
3980;DHT22;2004;52.452;13.120;2022-07-18T19:29:05;23.90;64.80
3980;DHT22;2004;52.452;13.120;2022-07-18T19:36:55;23.70;65.20
3980;DHT22;2004;52.452;13.120;2022-07-18T19:44:46;23.40;66.10
3980;DHT22;2004;52.452;13.120;2022-07-18T19:52:37;23.20;68.70
3980;DHT22;2004;52.452;13.120;2022-07-18T20:00:27;23.00;70.90
3980;DHT22;2004;52.452;13.120;2022-07-18T20:08:18;22.80;72.50
3980;DHT22;2004;52.452;13.120;2022-07-18T20:16:09;22.60;74.00
3980;DHT22;2004;52.452;13.120;2022-07-18T20:23:59;22.40;75.90
3980;DHT22;2004;52.452;13.120;2022-07-18T20:31:50;22.20;77.20
3980;DHT22;2004;52.452;13.120;2022-07-18T20:39:41;22.00;78.30
3980;DHT22;2004;52.452;13.120;2022-07-18T20:47:32;21.80;81.00
3980;DHT22;2004;52.452;13.120;2022-07-18T20:55:23;21.70;82.20
3980;DHT22;2004;52.452;13.120;2022-07-18T21:03:13;21.50;82.60
3980;DHT22;2004;52.452;13.120;2022-07-18T21:11:04;21.40;85.20
3980;DHT22;2004;52.452;13.120;2022-07-18T21:18:54;21.30;91.40
3980;DHT22;2004;52.452;13.120;2022-07-18T21:26:45;21.10;98.10
3980;DHT22;2004;52.452;13.120;2022-07-18T21:34:35;20.90;99.90
3980;DHT22;2004;52.452;13.120;2022-07-18T21:42:27;20.80;99.80
3980;DHT22;2004;52.452;13.120;2022-07-18T21:50:18;20.70;99.90
3980;DHT22;2004;52.452;13.120;2022-07-18T21:58:08;20.60;99.90
3980;DHT22;2004;52.452;13.120;2022-07-18T22:05:59;20.40;99.90
3980;DHT22;2004;52.452;13.120;2022-07-18T22:13:49;20.30;99.90
3980;DHT22;2004;52.452;13.120;2022-07-18T22:21:40;20.10;99.90
3980;DHT22;2004;52.452;13.120;2022-07-18T22:29:30;20.00;99.90
3980;DHT22;2004;52.452;13.120;2022-07-18T22:37:21;19.80;99.90
3980;DHT22;2004;52.452;13.120;2022-07-18T22:45:12;19.70;99.90
3980;DHT22;2004;52.452;13.120;2022-07-18T22:53:02;19.60;99.90
3980;DHT22;2004;52.452;13.120;2022-07-18T23:00:53;19.40;99.90
3980;DHT22;2004;52.452;13.120;2022-07-18T23:08:43;19.30;99.90
3980;DHT22;2004;52.452;13.120;2022-07-18T23:16:34;19.20;99.90
3980;DHT22;2004;52.452;13.120;2022-07-18T23:24:24;19.10;99.90
3980;DHT22;2004;52.452;13.120;2022-07-18T23:32:15;19.00;99.90
3980;DHT22;2004;52.452;13.120;2022-07-18T23:40:08;18.90;99.90
3980;DHT22;2004;52.452;13.120;2022-07-18T23:47:59;18.70;99.90
3980;DHT22;2004;52.452;13.120;2022-07-18T23:55:49;18.60;99.90
